Time;durP1;ratioP1;P1;durP2;ratioP2;P2;SDS_P1;SDS_P2;PMS_P1;PMS_P2;Temp;Humidity;BMP_temperature;BMP_pressure;BME280_temperature;BME280_humidity;BME280_pressure;Samples;Min_cycle;Max_cycle;Signal;HPM_P1;HPM_P2
2021/11/16 00:02:25;;;;;;;36.80;14.70;;;;;;;4.57;91.33;101897.15;102177;1318;72437;-77
2021/11/16 00:05:53;;;;;;;24.70;12.50;;;;;;;4.56;91.42;101901.03;102311;1318;72433;-78
2021/11/16 00:09:02;;;;;;;21.50;10.60;;;;;;;4.55;91.46;101898.53;102333;1318;61294;-78
2021/11/16 00:12:18;;;;;;;22.80;11.00;;;;;;;4.52;91.58;101896.45;102250;1315;61424;-78
2021/11/16 00:15:47;;;;;;;28.00;11.70;;;;;;;4.52;91.78;101895.60;102323;1318;74956;-78
2021/11/16 00:19:36;;;;;;;27.70;11.70;;;;;;;4.51;91.78;101895.09;102326;1317;73025;-77
2021/11/16 00:22:45;;;;;;;27.20;12.70;;;;;;;4.49;91.73;101891.90;102051;1318;72990;-77
2021/11/16 00:26:01;;;;;;;35.10;15.90;;;;;;;4.48;91.86;101887.72;101991;1318;61737;-77
2021/11/16 00:28:29;;;;;;;29.70;13.60;;;;;;;4.49;91.93;101885.59;102476;1319;61305;-78
2021/11/16 00:31:36;;;;;;;;;;;;;;;;;;;;;
2021/11/16 00:34:45;;;;;;;33.10;13.30;;;;;;;4.47;92.07;101874.46;102477;1318;70301;-78
2021/11/16 00:37:15;;;;;;;24.90;12.10;;;;;;;4.44;92.01;101872.27;102163;1321;74067;-78
2021/11/16 00:40:19;;;;;;;;;;;;;;;;;;;;;
2021/11/16 00:43:12;;;;;;;28.70;10.70;;;;;;;4.36;91.88;101872.67;102309;1318;61361;-77
2021/11/16 00:46:24;;;;;;;25.40;9.90;;;;;;;4.34;91.79;101874.23;102205;1318;75203;-77
2021/11/16 00:49:32;;;;;;;;;;;;;;;;;;;;;
2021/11/16 00:52:39;;;;;;;30.80;13.60;;;;;;;4.32;91.80;101870.47;102169;1318;74261;-78
2021/11/16 00:55:56;;;;;;;29.80;13.30;;;;;;;4.33;91.87;101874.40;102137;1318;63116;-76
2021/11/16 00:59:12;;;;;;;28.40;13.70;;;;;;;4.33;91.65;101870.80;101957;1318;61621;-78
2021/11/16 01:01:55;;;;;;;;;;;;;;;;;;;;;
2021/11/16 01:05:29;;;;;;;27.40;10.00;;;;;;;4.30;91.89;101865.35;102256;1321;72500;-77
2021/11/16 01:08:17;;;;;;;32.10;14.80;;;;;;;4.28;91.95;101865.51;102145;1318;72152;-77
2021/11/16 01:10:45;;;;;;;38.10;14.80;;;;;;;4.27;91.70;101862.77;102262;1318;61619;-78
2021/11/16 01:13:38;;;;;;;32.00;13.70;;;;;;;4.26;91.81;101865.05;102280;1318;61618;-77
2021/11/16 01:17:00;;;;;;;22.70;11.20;;;;;;;4.27;92.07;101862.05;102383;1318;76088;-80
2021/11/16 01:20:31;;;;;;;32.20;12.20;;;;;;;4.28;91.91;101864.64;102338;1318;70022;-81
2021/11/16 01:24:01;;;;;;;26.50;11.80;;;;;;;4.28;91.87;101858.65;102162;1319;71943;-77
2021/11/16 01:27:10;;;;;;;17.10;8.20;;;;;;;4.29;92.10;101854.73;102129;1318;61527;-77
2021/11/16 01:30:31;;;;;;;;;;;;;;;;;;;;;
2021/11/16 01:37:01;;;;;;;;;;;;;;;;;;;;;
2021/11/16 01:40:16;;;;;;;;;;;;;;;;;;;;;
2021/11/16 01:43:24;;;;;;;27.50;12.00;;;;;;;4.28;92.03;101829.08;102069;1318;61511;-77
2021/11/16 01:46:45;;;;;;;;;;;;;;;;;;;;;
2021/11/16 01:50:14;;;;;;;38.50;16.70;;;;;;;4.27;92.20;101817.21;102353;1318;75875;-81
2021/11/16 01:53:20;;;;;;;38.20;15.40;;;;;;;4.29;92.05;101814.48;102107;1318;73937;-79
2021/11/16 01:56:38;;;;;;;27.80;12.60;;;;;;;4.31;92.11;101809.42;102286;1318;73468;-78
2021/11/16 01:59:38;;;;;;;;;;;;;;;;;;;;;
2021/11/16 02:02:40;;;;;;;20.20;8.80;;;;;;;4.29;92.18;101804.11;102186;1318;61527;-78
2021/11/16 02:06:27;;;;;;;40.90;16.20;;;;;;;4.28;92.18;101799.66;102279;1318;75692;-76
2021/11/16 02:09:54;;;;;;;47.70;18.20;;;;;;;4.29;92.37;101797.29;102412;1318;73750;-77
2021/11/16 02:13:21;;;;;;;34.20;15.60;;;;;;;4.29;92.17;101796.23;102137;1318;74028;-79
2021/11/16 02:16:32;;;;;;;40.30;15.90;;;;;;;4.28;92.09;101787.53;102655;1318;62335;-79
2021/11/16 02:19:53;;;;;;;;;;;;;;;;;;;;;
2021/11/16 02:23:10;;;;;;;37.50;16.20;;;;;;;4.27;92.22;101783.41;102463;1318;76246;-79
2021/11/16 02:25:39;;;;;;;33.30;14.30;;;;;;;4.26;92.29;101779.13;102429;1318;72548;-78
2021/11/16 02:29:23;;;;;;;35.90;15.00;;;;;;;4.27;92.41;101781.50;102307;1318;72989;-78
2021/11/16 02:32:13;;;;;;;39.70;17.10;;;;;;;4.26;92.42;101769.67;102043;1318;61317;-76
2021/11/16 02:35:43;;;;;;;42.20;17.10;;;;;;;4.26;92.56;101764.94;102316;1318;61344;-80
2021/11/16 02:38:29;;;;;;;45.60;15.20;;;;;;;4.27;92.35;101761.55;102284;1318;76047;-78
2021/11/16 02:41:29;;;;;;;;;;;;;;;;;;;;;
2021/11/16 02:44:58;;;;;;;43.30;17.70;;;;;;;4.26;92.68;101758.08;102288;1322;74085;-80
2021/11/16 02:48:12;;;;;;;43.10;17.40;;;;;;;4.26;92.64;101760.19;102322;1318;61426;-78
2021/11/16 02:51:32;;;;;;;;;;;;;;;;;;;;;
2021/11/16 02:55:10;;;;;;;;;;;;;;;;;;;;;
2021/11/16 02:58:46;;;;;;;36.60;15.10;;;;;;;4.21;93.03;101750.91;102166;1318;70090;-77
2021/11/16 03:01:34;;;;;;;41.10;16.90;;;;;;;4.20;92.93;101751.87;102121;1322;74274;-79
2021/11/16 03:04:57;;;;;;;;;;;;;;;;;;;;;
2021/11/16 03:08:14;;;;;;;;;;;;;;;;;;;;;
2021/11/16 03:11:25;;;;;;;43.90;17.90;;;;;;;4.23;92.98;101748.50;102322;1318;74833;-77
2021/11/16 03:14:33;;;;;;;;;;;;;;;;;;;;;
2021/11/16 03:17:42;;;;;;;39.80;17.30;;;;;;;4.29;93.13;101750.02;102540;1318;72108;-81
2021/11/16 03:20:59;;;;;;;43.40;18.40;;;;;;;4.29;93.11;101750.00;102163;1319;61378;-77
2021/11/16 03:23:50;;;;;;;34.50;15.50;;;;;;;4.29;93.04;101747.36;102177;1318;61764;-79
2021/11/16 03:26:38;;;;;;;;;;;;;;;;;;;;;
2021/11/16 03:29:48;;;;;;;37.20;15.00;;;;;;;4.28;92.93;101749.91;102402;1317;72447;-78
2021/11/16 03:33:13;;;;;;;43.90;17.10;;;;;;;4.27;93.20;101744.21;102503;1318;72109;-79
2021/11/16 03:36:03;;;;;;;;;;;;;;;;;;;;;
2021/11/16 03:38:40;;;;;;;41.10;15.70;;;;;;;4.29;93.21;101749.00;102328;1318;59860;-78
2021/11/16 03:41:59;;;;;;;46.70;18.10;;;;;;;4.28;93.10;101746.73;102098;1318;75155;-77
2021/11/16 03:45:28;;;;;;;32.60;13.10;;;;;;;4.31;93.15;101746.94;102526;1318;70073;-77
2021/11/16 03:48:26;;;;;;;47.20;18.50;;;;;;;4.30;93.15;101743.98;102312;1318;74025;-77
2021/11/16 03:51:37;;;;;;;42.40;19.40;;;;;;;4.30;93.32;101741.71;102262;1318;61920;-77
2021/11/16 03:54:13;;;;;;;;;;;;;;;;;;;;;
2021/11/16 03:57:55;;;;;;;43.00;17.70;;;;;;;4.28;93.29;101741.30;102085;1318;74984;-76
2021/11/16 04:01:12;;;;;;;;;;;;;;;;;;;;;
2021/11/16 04:03:45;;;;;;;41.70;17.70;;;;;;;4.26;93.33;101741.31;102299;1318;73975;-76
2021/11/16 04:06:18;;;;;;;48.10;18.20;;;;;;;4.26;93.35;101736.56;102165;1318;62670;-75
2021/11/16 04:09:09;;;;;;;;;;;;;;;;;;;;;
2021/11/16 04:12:12;;;;;;;;;;;;;;;;;;;;;
2021/11/16 04:15:32;;;;;;;;;;;;;;;;;;;;;
2021/11/16 04:18:26;;;;;;;38.20;16.30;;;;;;;4.25;93.67;101732.09;102304;1318;73260;-77
2021/11/16 04:21:17;;;;;;;28.10;9.40;;;;;;;4.24;93.92;101728.30;102158;1319;61369;-77
2021/11/16 04:24:42;;;;;;;;;;;;;;;;;;;;;
2021/11/16 04:27:29;;;;;;;;;;;;;;;;;;;;;
2021/11/16 04:31:01;;;;;;;46.40;18.10;;;;;;;4.17;93.58;101723.88;102330;1318;73237;-77
2021/11/16 04:33:57;;;;;;;;;;;;;;;;;;;;;
2021/11/16 04:36:58;;;;;;;47.20;19.20;;;;;;;4.17;93.92;101723.38;102240;1318;62060;-79
2021/11/16 04:39:46;;;;;;;39.00;16.80;;;;;;;4.16;94.16;101720.31;102070;1321;61421;-78
2021/11/16 04:43:09;;;;;;;32.60;14.50;;;;;;;4.15;94.12;101717.05;102375;1318;74922;-78
2021/11/16 04:45:35;;;;;;;40.60;17.20;;;;;;;4.14;94.30;101712.36;102710;1317;72951;-76
2021/11/16 04:52:10;;;;;;;42.00;17.70;;;;;;;4.14;94.15;101709.73;101960;1318;61700;-77
2021/11/16 04:54:19;;;;;;;51.70;19.40;;;;;;;4.15;94.36;101709.01;102227;1318;61327;-76
2021/11/16 05:04:43;;;;;;;40.40;17.30;;;;;;;4.17;94.38;101702.36;102355;1317;72664;-77
2021/11/16 05:07:04;;;;;;;;;;;;;;;;;;;;;
2021/11/16 05:10:10;;;;;;;36.10;16.20;;;;;;;4.16;94.28;101704.38;102248;1319;61655;-77
2021/11/16 05:12:49;;;;;;;40.50;17.30;;;;;;;4.15;94.49;101703.02;102564;1318;74498;-77
2021/11/16 05:15:43;;;;;;;47.80;17.60;;;;;;;4.15;94.30;101702.33;102373;1318;71118;-77
2021/11/16 05:18:44;;;;;;;;;;;;;;;;;;;;;
2021/11/16 05:22:13;;;;;;;26.60;11.00;;;;;;;4.14;94.60;101697.84;102248;1318;62262;-79
2021/11/16 05:25:06;;;;;;;29.80;12.20;;;;;;;4.13;94.45;101694.13;102411;1318;61642;-79
2021/11/16 05:28:13;;;;;;;;;;;;;;;;;;;;;
2021/11/16 05:31:32;;;;;;;;;;;;;;;;;;;;;
2021/11/16 05:34:20;;;;;;;43.60;16.60;;;;;;;4.10;94.55;101689.56;102197;1316;72906;-77
2021/11/16 05:37:19;;;;;;;;;;;;;;;;;;;;;
2021/11/16 05:40:37;;;;;;;42.20;15.00;;;;;;;4.10;94.79;101692.16;102411;1315;61701;-79
2021/11/16 05:43:16;;;;;;;;;;;;;;;;;;;;;
2021/11/16 05:46:39;;;;;;;41.50;15.60;;;;;;;4.13;94.90;101704.39;102246;1318;71664;-78
2021/11/16 05:49:31;;;;;;;51.90;19.70;;;;;;;4.14;94.96;101704.53;102222;1319;74091;-78
2021/11/16 05:52:39;;;;;;;47.10;17.80;;;;;;;4.16;95.08;101712.09;102371;1318;63168;-76
2021/11/16 05:55:56;;;;;;;;;;;;;;;;;;;;;
2021/11/16 05:59:27;;;;;;;47.40;18.10;;;;;;;4.20;95.40;101714.97;101990;1318;75946;-77
2021/11/16 06:02:20;;;;;;;42.30;16.50;;;;;;;4.22;95.40;101710.27;102340;1318;71186;-78
2021/11/16 06:05:04;;;;;;;37.10;15.70;;;;;;;4.22;95.09;101709.39;102671;1318;73413;-76
2021/11/16 06:07:53;;;;;;;36.40;15.10;;;;;;;4.20;95.09;101704.81;102197;1318;61396;-79
2021/11/16 06:11:22;;;;;;;41.10;15.20;;;;;;;4.18;95.00;101707.40;101856;1318;61449;-79
2021/11/16 06:14:08;;;;;;;;;;;;;;;;;;;;;
2021/11/16 06:17:00;;;;;;;55.10;19.20;;;;;;;4.15;95.08;101711.28;102300;1318;71407;-78
2021/11/16 06:20:21;;;;;;;;;;;;;;;;;;;;;
2021/11/16 06:23:05;;;;;;;42.80;17.70;;;;;;;4.17;95.44;101706.44;100100;1318;5494356;-79
2021/11/16 06:25:31;;;;;;;50.50;23.80;;;;;;;4.17;95.28;101707.26;102728;1319;60673;-79
2021/11/16 06:28:05;;;;;;;41.50;17.50;;;;;;;4.22;95.42;101707.59;102442;1319;75064;-77
2021/11/16 06:30:37;;;;;;;37.40;15.60;;;;;;;4.25;95.53;101706.50;102364;1318;71114;-76
2021/11/16 06:33:09;;;;;;;46.90;16.90;;;;;;;4.27;95.79;101706.70;102544;1319;74175;-76
2021/11/16 06:35:39;;;;;;;38.60;15.10;;;;;;;4.31;95.75;101708.91;102335;1320;60660;-77
2021/11/16 06:38:26;;;;;;;43.20;16.50;;;;;;;4.30;95.56;101708.09;102469;1321;61291;-77
2021/11/16 06:41:08;;;;;;;39.60;16.90;;;;;;;4.29;95.46;101709.02;102307;1318;74965;-77
2021/11/16 06:44:00;;;;;;;40.70;15.60;;;;;;;4.29;95.24;101705.73;102585;1318;71636;-79
2021/11/16 06:46:44;;;;;;;48.30;18.10;;;;;;;4.29;95.62;101710.45;102152;1319;74094;-76
2021/11/16 06:50:02;;;;;;;;;;;;;;;;;;;;;
2021/11/16 06:53:09;;;;;;;49.50;17.80;;;;;;;4.30;95.51;101707.72;102469;1318;61359;-78
2021/11/16 06:56:26;;;;;;;;;;;;;;;;;;;;;
2021/11/16 06:59:25;;;;;;;48.90;19.10;;;;;;;4.32;95.27;101706.58;102217;1318;71700;-77
2021/11/16 07:01:53;;;;;;;24.90;10.90;;;;;;;4.30;95.56;101704.95;102393;1318;72940;-77
2021/11/16 07:05:04;;;;;;;45.30;16.90;;;;;;;4.28;95.41;101707.52;102543;1318;61320;-78
2021/11/16 07:07:51;;;;;;;;;;;;;;;;;;;;;
2021/11/16 07:10:25;;;;;;;43.90;17.80;;;;;;;4.26;95.72;101705.55;102244;1321;76098;-77
2021/11/16 07:13:45;;;;;;;49.30;16.90;;;;;;;4.27;95.74;101709.02;102416;1318;71482;-76
2021/11/16 07:16:26;;;;;;;48.70;18.10;;;;;;;4.26;95.75;101708.39;102395;1318;72917;-79
2021/11/16 07:19:08;;;;;;;;;;;;;;;;;;;;;
2021/11/16 07:22:43;;;;;;;45.80;18.00;;;;;;;4.27;95.93;101709.73;102423;1318;61738;-79
2021/11/16 07:25:18;;;;;;;40.40;16.00;;;;;;;4.27;95.96;101710.78;102334;1318;76303;-77
2021/11/16 07:28:11;;;;;;;44.20;16.70;;;;;;;4.27;96.02;101715.99;102566;1317;72597;-76
2021/11/16 07:31:17;;;;;;;;;;;;;;;;;;;;;
2021/11/16 07:34:38;;;;;;;;;;;;;;;;;;;;;
2021/11/16 07:37:36;;;;;;;32.50;13.10;;;;;;;4.36;96.37;101718.69;102082;1318;61313;-75
2021/11/16 07:40:36;;;;;;;;;;;;;;;;;;;;;
2021/11/16 07:43:29;;;;;;;38.20;16.60;;;;;;;4.32;96.20;101717.23;102512;1318;72522;-75
2021/11/16 07:46:19;;;;;;;;;;;;;;;;;;;;;
2021/11/16 07:49:24;;;;;;;49.60;18.10;;;;;;;4.33;96.35;101717.88;102373;1318;61926;-80
2021/11/16 07:52:02;;;;;;;47.00;16.50;;;;;;;4.35;96.43;101714.55;102498;1318;61345;-77
2021/11/16 07:54:31;;;;;;;49.90;17.20;;;;;;;4.36;96.15;101715.37;102408;1322;74723;-76
2021/11/16 07:57:08;;;;;;;46.20;17.10;;;;;;;4.37;96.16;101717.55;102442;1318;71747;-76
2021/11/16 08:00:06;;;;;;;;;;;;;;;;;;;;;
2021/11/16 08:02:57;;;;;;;40.60;16.60;;;;;;;4.42;96.25;101723.90;102449;1319;63010;-79
2021/11/16 08:11:39;;;;;;;45.50;17.90;;;;;;;4.46;96.02;101731.84;102394;1318;72304;-79
2021/11/16 08:14:29;;;;;;;35.60;15.00;;;;;;;4.48;96.26;101732.21;102454;1318;73606;-79
2021/11/16 08:17:27;;;;;;;44.30;17.00;;;;;;;4.50;96.37;101733.65;102346;1318;61317;-78
2021/11/16 08:20:19;;;;;;;38.80;15.40;;;;;;;4.52;96.32;101738.45;102468;1318;63039;-78
2021/11/16 08:23:19;;;;;;;;;;;;;;;;;;;;;
2021/11/16 08:25:52;;;;;;;35.00;12.70;;;;;;;4.52;95.89;101731.74;102486;1318;72776;-77
2021/11/16 08:28:27;;;;;;;49.00;18.80;;;;;;;4.52;95.74;101726.90;102276;1319;73078;-77
2021/11/16 08:30:58;;;;;;;49.20;19.40;;;;;;;4.53;95.82;101721.04;102352;1319;63224;-77
2021/11/16 08:33:51;;;;;;;47.30;19.80;;;;;;;4.53;95.93;101717.89;102459;1319;61540;-77
2021/11/16 08:36:29;;;;;;;44.60;17.00;;;;;;;4.55;95.99;101716.13;102452;1319;76217;-78
2021/11/16 08:39:10;;;;;;;50.10;18.20;;;;;;;4.58;96.01;101712.27;102530;1318;72571;-77
2021/11/16 08:41:51;;;;;;;44.80;16.70;;;;;;;4.61;95.81;101709.23;102428;1322;73136;-79
2021/11/16 08:44:52;;;;;;;;;;;;;;;;;;;;;
2021/11/16 08:47:52;;;;;;;;;;;;;;;;;;;;;
2021/11/16 08:51:21;;;;;;;39.60;14.40;;;;;;;4.62;95.72;101704.92;102502;1318;74968;-78
2021/11/16 08:54:15;;;;;;;36.80;14.30;;;;;;;4.62;95.99;101701.98;102227;1318;71478;-77
2021/11/16 08:57:13;;;;;;;40.80;15.80;;;;;;;4.61;96.02;101699.05;102379;1318;72557;-77
2021/11/16 09:00:10;;;;;;;27.10;11.00;;;;;;;4.61;96.00;101701.68;102297;1321;61832;-78
2021/11/16 09:03:22;;;;;;;46.30;16.80;;;;;;;4.59;95.93;101696.04;102331;1318;61923;-76
2021/11/16 09:05:54;;;;;;;46.20;17.20;;;;;;;4.60;95.97;101702.96;102204;1318;76081;-75
2021/11/16 09:09:10;;;;;;;34.70;14.10;;;;;;;4.61;95.94;101699.23;102044;1323;71302;-76
2021/11/16 09:12:00;;;;;;;;;;;;;;;4.60;95.68;101696.49;102231;1318;74295;-77
2021/11/16 09:14:54;;;;;;;44.10;17.10;;;;;;;4.62;95.91;101700.77;102478;1318;63423;-76
2021/11/16 09:17:29;;;;;;;43.90;16.50;;;;;;;4.63;96.01;101698.02;102329;1318;61449;-77
2021/11/16 09:20:46;;;;;;;;;;;;;;;;;;;;;
2021/11/16 09:23:31;;;;;;;27.90;10.40;;;;;;;4.58;96.05;101696.63;102519;1323;70702;-78
2021/11/16 09:26:50;;;;;;;27.50;12.90;;;;;;;4.53;96.06;101699.45;102460;1318;73905;-80
2021/11/16 09:29:22;;;;;;;39.30;13.30;;;;;;;4.51;96.27;101692.63;102896;1318;61936;-76
2021/11/16 09:32:11;;;;;;;41.50;14.50;;;;;;;4.52;96.53;101691.83;102585;1318;61606;-79
2021/11/16 09:34:43;;;;;;;42.90;17.30;;;;;;;4.52;96.41;101685.86;102366;1321;76292;-76
2021/11/16 09:37:20;;;;;;;49.00;19.00;;;;;;;4.55;96.66;101688.84;102348;1318;71537;-76
2021/11/16 09:40:10;;;;;;;52.70;19.20;;;;;;;4.60;97.02;101683.91;102385;1319;74172;-76
2021/11/16 09:43:03;;;;;;;46.60;17.00;;;;;;;4.67;97.31;101681.05;102197;1322;63274;-76
2021/11/16 09:45:41;;;;;;;40.20;16.30;;;;;;;4.77;97.53;101681.42;102422;1318;61709;-78
2021/11/16 09:48:41;;;;;;;44.20;16.30;;;;;;;4.83;97.02;101677.85;102504;1316;75457;-79
2021/11/16 09:51:31;;;;;;;32.20;11.10;;;;;;;4.82;96.56;101671.77;102452;1318;72707;-76
2021/11/16 09:54:50;;;;;;;46.10;15.60;;;;;;;4.74;95.81;101673.88;102389;1319;73962;-77
2021/11/16 09:57:29;;;;;;;;;;;;;;;;;;;;;
2021/11/16 10:00:29;;;;;;;41.70;16.00;;;;;;;4.69;96.46;101667.94;102236;1320;61321;-76
2021/11/16 10:03:19;;;;;;;41.70;15.00;;;;;;;4.66;96.08;101665.24;102176;1319;74881;-77
2021/11/16 10:06:31;;;;;;;37.30;13.10;;;;;;;4.61;96.26;101667.18;102565;1318;72490;-77
2021/11/16 10:09:13;;;;;;;31.60;13.50;;;;;;;4.55;96.58;101666.89;102158;1326;74273;-77
2021/11/16 10:11:46;;;;;;;38.70;14.50;;;;;;;4.50;96.84;101665.20;102380;1318;61853;-77
2021/11/16 10:14:33;;;;;;;37.90;14.80;;;;;;;4.45;96.69;101664.10;102508;1318;62048;-77
2021/11/16 10:17:22;;;;;;;38.40;16.00;;;;;;;4.47;97.52;101662.07;102379;1318;76109;-77
2021/11/16 10:19:48;;;;;;;35.00;13.80;;;;;;;4.51;97.39;101658.96;102319;1320;71466;-76
2021/11/16 10:22:57;;;;;;;53.80;19.20;;;;;;;4.54;97.32;101655.40;102512;1318;75011;-80
2021/11/16 10:25:59;;;;;;;39.70;15.40;;;;;;;4.60;97.40;101656.05;102395;1319;63492;-79
2021/11/16 10:28:30;;;;;;;45.90;15.00;;;;;;;4.63;97.24;101655.41;102322;1320;61254;-79
2021/11/16 10:31:38;;;;;;;48.40;16.10;;;;;;;4.66;97.17;101657.85;102371;1319;75062;-77
2021/11/16 10:34:47;;;;;;;53.10;16.80;;;;;;;4.68;97.14;101658.06;102345;1322;71511;-79
2021/11/16 10:37:28;;;;;;;;;;;;;;;;;;;;;
2021/11/16 10:40:47;;;;;;;35.90;13.30;;;;;;;4.79;97.35;101651.35;102391;1318;61345;-77
2021/11/16 10:43:45;;;;;;;24.70;11.00;;;;;;;4.79;97.07;101649.23;102382;1318;61307;-77
2021/11/16 10:46:23;;;;;;;;;;;;;;;;;;;;;
2021/11/16 10:49:59;;;;;;;36.90;12.50;;;;;;;4.78;96.76;101637.70;102246;1321;72896;-79
2021/11/16 10:53:41;;;;;;;52.80;17.40;;;;;;;4.75;96.50;101630.04;102524;1319;73080;-77
2021/11/16 10:57:08;;;;;;;52.10;18.70;;;;;;;4.74;96.81;101625.76;102025;1317;63323;-77
2021/11/16 11:00:21;;;;;;;49.50;17.50;;;;;;;4.75;97.24;101622.13;102161;1318;61433;-80
2021/11/16 11:03:54;;;;;;;53.70;17.70;;;;;;;4.78;97.45;101625.79;101979;1325;73846;-78
2021/11/16 11:07:08;;;;;;;39.80;15.50;;;;;;;4.82;97.08;101626.73;102103;1318;71778;-77
2021/11/16 11:10:38;;;;;;;38.70;16.70;;;;;;;4.80;96.70;101627.21;102120;1324;72932;-78
2021/11/16 11:14:20;;;;;;;36.70;12.40;;;;;;;4.82;97.04;101615.86;102136;1318;61786;-77
2021/11/16 11:18:04;;;;;;;32.80;13.10;;;;;;;4.83;96.70;101610.16;101845;1324;61763;-76
2021/11/16 11:21:33;;;;;;;;;;;;;;;;;;;;;
2021/11/16 11:32:06;;;;;;;48.10;14.70;;;;;;;4.79;96.64;101604.55;101849;1324;63350;-77
2021/11/16 11:35:41;;;;;;;62.00;20.60;;;;;;;4.79;96.81;101600.98;102351;1320;61397;-78
2021/11/16 11:38:53;;;;;;;51.80;19.40;;;;;;;4.85;97.20;101594.04;102271;1322;74118;-77
2021/11/16 11:42:25;;;;;;;;;;;;;;;;;;;;;
2021/11/16 11:45:54;;;;;;;43.60;18.80;;;;;;;4.87;96.41;101587.04;102068;1323;74016;-78
2021/11/16 11:49:21;;;;;;;47.60;15.90;;;;;;;4.87;96.67;101580.25;102121;1320;61631;-78
2021/11/16 11:52:48;;;;;;;48.30;17.60;;;;;;;4.91;96.78;101570.52;102390;1318;61716;-77
2021/11/16 11:56:15;;;;;;;59.00;19.80;;;;;;;4.93;96.14;101563.33;102297;1320;74802;-76
2021/11/16 11:59:41;;;;;;;47.70;15.40;;;;;;;4.95;96.27;101557.77;102219;1318;72468;-77
2021/11/16 12:03:09;;;;;;;52.90;21.20;;;;;;;4.94;95.73;101557.86;102260;1322;73970;-79
2021/11/16 12:06:28;;;;;;;;;;;;;;;;;;;;;
2021/11/16 12:09:39;;;;;;;;;;;;;;;;;;;;;
2021/11/16 12:13:08;;;;;;;46.30;18.30;;;;;;;4.90;96.00;101546.33;102602;1320;74970;-77
2021/11/16 12:16:44;;;;;;;35.40;15.50;;;;;;;4.88;96.11;101537.90;102102;1318;71559;-79
2021/11/16 12:20:18;;;;;;;56.70;22.00;;;;;;;4.89;95.81;101538.90;101730;1326;71668;-77
2021/11/16 12:23:39;;;;;;;54.20;19.80;;;;;;;4.95;96.32;101534.77;102118;1318;61435;-77
2021/11/16 12:27:09;;;;;;;56.60;19.50;;;;;;;4.97;95.75;101534.10;102342;1319;61201;-77
2021/11/16 12:30:09;;;;;;;52.30;20.20;;;;;;;4.97;96.09;101532.70;102114;1321;76226;-77
2021/11/16 12:33:31;;;;;;;52.10;21.40;;;;;;;5.00;96.10;101532.08;101975;1327;71935;-77
2021/11/16 12:37:08;;;;;;;;;;;;;;;;;;;;;
2021/11/16 12:40:44;;;;;;;;;;;;;;;;;;;;;
2021/11/16 12:43:46;;;;;;;50.20;18.50;;;;;;;4.96;95.56;101521.23;102432;1323;61977;-77
2021/11/16 12:47:21;;;;;;;51.80;18.20;;;;;;;4.95;95.66;101511.11;102274;1321;75956;-78
2021/11/16 12:50:11;;;;;;;;;;;;;;;4.95;95.57;101507.79;101768;1327;70269;-76
2021/11/16 12:53:42;;;;;;;49.80;18.40;;;;;;;4.92;95.42;101506.99;102256;1320;74165;-77
2021/11/16 12:57:21;;;;;;;47.90;18.70;;;;;;;4.91;95.66;101504.05;102064;1320;62566;-77
2021/11/16 13:00:49;;;;;;;40.10;15.70;;;;;;;4.90;95.25;101503.23;101829;1324;61880;-78
2021/11/16 13:04:15;;;;;;;35.80;14.80;;;;;;;4.88;95.45;101506.54;101913;1327;75349;-79
2021/11/16 13:07:42;;;;;;;41.40;14.90;;;;;;;4.85;95.20;101504.48;101331;1330;72465;-79
2021/11/16 13:11:25;;;;;;;38.00;14.00;;;;;;;4.84;95.55;101503.16;101361;1333;71929;-76
2021/11/16 13:14:52;;;;;;;38.00;13.00;;;;;;;4.84;95.25;101498.58;101504;1333;61433;-76
2021/11/16 13:18:27;;;;;;;39.10;14.00;;;;;;;4.81;95.06;101492.51;101619;1333;61640;-78
2021/11/16 13:21:54;;;;;;;39.70;14.70;;;;;;;4.79;95.22;101484.83;101562;1321;77386;-79
2021/11/16 13:25:21;;;;;;;36.60;12.90;;;;;;;4.76;95.46;101480.11;101990;1324;73860;-76
2021/11/16 13:32:26;;;;;;;;;;;;;;;;;;;;;
2021/11/16 13:35:55;;;;;;;38.60;14.40;;;;;;;4.69;95.21;101480.11;102016;1320;62279;-76
2021/11/16 13:39:20;;;;;;;28.80;11.50;;;;;;;4.66;95.33;101480.58;102719;1324;76082;-77
2021/11/16 13:42:56;;;;;;;33.90;12.60;;;;;;;4.64;95.49;101480.90;102306;1321;72113;-78
2021/11/16 13:46:27;;;;;;;36.60;14.40;;;;;;;4.63;95.56;101480.74;102215;1320;73890;-77
2021/11/16 13:49:20;;;;;;;30.60;11.70;;;;;;;4.61;95.47;101476.73;102164;1321;61318;-76
2021/11/16 13:52:55;;;;;;;31.20;13.50;;;;;;;4.57;95.51;101478.27;101914;1322;61791;-77
2021/11/16 13:56:03;;;;;;;28.80;10.50;;;;;;;4.52;95.42;101474.63;102326;1320;76024;-76
2021/11/16 13:59:31;;;;;;;27.50;10.90;;;;;;;4.48;95.50;101471.21;102320;1323;71537;-79
2021/11/16 14:06:07;;;;;;;;;;;;;;;;;;;;;
2021/11/16 14:09:36;;;;;;;28.60;12.50;;;;;;;4.38;95.31;101473.00;102241;1318;61351;-77
2021/11/16 14:13:03;;;;;;;36.40;11.60;;;;;;;4.36;95.54;101468.96;102059;1324;76041;-79
2021/11/16 14:16:30;;;;;;;32.80;12.20;;;;;;;4.35;95.50;101455.95;102297;1323;72679;-78
2021/11/16 14:19:58;;;;;;;27.40;11.70;;;;;;;4.35;96.00;101452.02;102094;1318;72967;-77
2021/11/16 14:22:58;;;;;;;;;;;;;;;;;;;;;
2021/11/16 14:25:57;;;;;;;22.90;10.40;;;;;;;4.35;95.38;101450.52;98159;1318;61340;-76
2021/11/16 14:29:26;;;;;;;26.50;11.10;;;;;;;4.34;95.53;101448.16;102532;1318;73038;-79
2021/11/16 14:32:52;;;;;;;31.20;12.30;;;;;;;4.34;95.51;101446.91;102026;1320;73306;-76
2021/11/16 14:36:23;;;;;;;29.20;11.30;;;;;;;4.34;95.43;101448.28;102170;1320;61459;-76
2021/11/16 14:39:36;;;;;;;31.20;12.20;;;;;;;4.36;95.44;101448.17;102207;1322;61203;-76
2021/11/16 14:42:43;;;;;;;19.00;8.70;;;;;;;4.37;94.99;101440.15;102364;1319;75016;-77
2021/11/16 14:46:10;;;;;;;29.10;11.70;;;;;;;4.36;95.08;101443.05;102417;1324;71615;-79
2021/11/16 14:49:17;;;;;;;25.00;10.40;;;;;;;4.35;95.03;101445.58;102312;1323;72653;-79
2021/11/16 14:52:46;;;;;;;23.30;10.10;;;;;;;4.33;94.80;101443.70;102432;1324;62184;-77
2021/11/16 14:56:13;;;;;;;24.50;11.20;;;;;;;4.31;94.82;101442.92;102024;1321;61769;-75
2021/11/16 14:59:41;;;;;;;28.60;10.70;;;;;;;4.32;94.75;101436.92;102114;1324;76038;-80
2021/11/16 15:03:10;;;;;;;26.80;11.50;;;;;;;4.32;94.82;101436.58;102245;1318;73519;-78
2021/11/16 15:06:10;;;;;;;25.20;10.60;;;;;;;4.31;94.81;101439.29;102005;1318;74100;-76
2021/11/16 15:08:36;;;;;;;21.70;9.30;;;;;;;4.25;94.17;101438.95;102084;1319;61303;-77
2021/11/16 15:12:04;;;;;;;23.40;10.00;;;;;;;4.19;94.23;101440.52;102332;1319;61323;-78
2021/11/16 15:15:22;;;;;;;;;;;;;;;;;;;;;
2021/11/16 15:19:01;;;;;;;25.00;11.30;;;;;;;4.08;94.20;101440.61;102179;1317;72488;-78
2021/11/16 15:29:39;;;;;;;;;;;;;;;;;;;;;
2021/11/16 15:33:06;;;;;;;;;;;;;;;;;;;;;
2021/11/16 15:36:50;;;;;;;25.30;11.00;;;;;;;4.02;94.80;101434.94;101396;1327;72876;-78
2021/11/16 15:40:02;;;;;;;;;;;;;;;;;;;;;
2021/11/16 15:43:42;;;;;;;;;;;;;;;;;;;;;
2021/11/16 15:47:43;;;;;;;20.30;8.40;;;;;;;3.90;94.08;101426.91;102343;1322;61310;-77
2021/11/16 16:00:57;;;;;;;22.90;10.80;;;;;;;3.82;93.80;101432.57;102200;1316;61225;-79
2021/11/16 16:04:32;;;;;;;18.10;9.50;;;;;;;3.80;93.29;101430.94;102424;1318;61351;-79
2021/11/16 16:07:59;;;;;;;21.70;9.80;;;;;;;3.82;93.59;101427.66;102231;1318;76131;-78
2021/11/16 16:11:00;;;;;;;;;;;;;;;;;;;;;
2021/11/16 16:14:34;;;;;;;15.80;7.50;;;;;;;3.85;93.02;101431.63;102338;1318;73196;-78
2021/11/16 16:21:16;;;;;;;18.20;8.50;;;;;;;3.82;93.01;101429.90;102484;1318;61258;-78
2021/11/16 16:24:44;;;;;;;17.30;7.30;;;;;;;3.81;93.07;101431.61;102417;1318;76992;-79
2021/11/16 16:28:11;;;;;;;15.20;6.90;;;;;;;3.80;93.16;101424.98;102770;1318;71839;-79
2021/11/16 16:31:38;;;;;;;18.00;7.00;;;;;;;3.79;93.08;101418.98;102612;1318;74584;-79
2021/11/16 16:34:51;;;;;;;14.80;7.60;;;;;;;3.79;93.09;101418.61;102657;1317;63600;-78
2021/11/16 16:38:18;;;;;;;14.40;6.70;;;;;;;3.77;93.06;101418.73;102400;1318;62728;-78
2021/11/16 16:41:37;;;;;;;;;;;;;;;;;;;;;
2021/11/16 16:45:06;;;;;;;15.10;6.40;;;;;;;3.72;93.24;101419.33;102544;1317;71587;-79
2021/11/16 16:47:47;;;;;;;17.80;7.70;;;;;;;3.70;93.12;101416.45;102202;1321;74163;-76
2021/11/16 16:50:38;;;;;;;17.90;7.20;;;;;;;3.71;93.11;101416.96;102290;1318;62457;-77
2021/11/16 16:54:06;;;;;;;16.60;8.30;;;;;;;3.72;93.23;101419.48;102504;1318;61293;-78
2021/11/16 16:56:52;;;;;;;16.10;7.50;;;;;;;3.74;93.64;101420.38;102896;1318;74740;-77
2021/11/16 17:00:03;;;;;;;17.80;7.20;;;;;;;3.74;93.49;101422.87;102429;1320;71207;-78